Data for 01/16/2005

Time Sea-Level Adjusted Pressure Absolute Pressure Temperature Relative Humidity Dew Point   
(mb) (inHg) (mb) (inHg) (C) (F) (%) (C) (F)
00:05 1026 30.3 855 25.25 -15.6 3.9 87 -17.3 0.8
00:10 1026 30.3 855 25.25 -15.3 4.4 83 -17.6 0.4
00:15 1026 30.3 855 25.25 -15.2 4.6 85 -17.2 1
00:20 1026 30.3 855 25.25 -14.9 5.1 81 -17.5 0.5
00:25 1026 30.3 855 25.25 -14.4 6.1 80 -17.2 1
00:30 1026 30.3 855 25.25 -14.4 6.1 79 -17.3 0.8
00:35 1026 30.3 855 25.25 -14.5 6 79 -17.3 0.9
00:40 1026 30.3 855 25.25 -14.6 5.8 79 -17.4 0.6
00:45 1026 30.3 855 25.25 -14.7 5.5 80 -17.5 0.4
00:50 1026 30.3 855 25.25 -14.9 5.1 80 -17.7 0.2
00:55 1026 30.3 855 25.25 -15 5 80 -17.7 0.1
01:00 1026 30.3 855 25.25 -15 5 80 -17.7 0.1
01:05 1026 30.3 855 25.25 -15.1 4.9 80 -17.8 -0
01:10 1026 30.3 855 25.25 -15.1 4.8 80 -17.9 -0.1
01:15 1026 30.3 855 25.25 -15.1 4.8 79 -18 -0.3
01:20 1025 30.27 855 25.25 -15.2 4.6 79 -18.1 -0.6
01:25 1025 30.27 855 25.25 -15.4 4.3 81 -18 -0.4
01:30 1025 30.27 855 25.25 -15.4 4.4 81 -17.9 -0.3
01:35 1025 30.27 855 25.25 -15.4 4.3 81 -17.9 -0.2
01:40 1025 30.27 855 25.25 -15.5 4 83 -17.9 -0.1
01:45 1025 30.27 855 25.25 -15.6 4 84 -17.7 0.2
01:50 1025 30.27 855 25.25 -15.3 4.4 84 -17.5 0.5
01:55 1025 30.27 855 25.25 -15.1 4.8 83 -17.5 0.5
02:00 1025 30.27 855 25.25 -15.2 4.6 84 -17.4 0.7
02:05 1025 30.27 855 25.25 -15 5 83 -17.3 0.9
02:10 1025 30.27 855 25.25 -14.9 5.2 84 -17.1 1.3
02:15 1025 30.27 855 25.25 -14.5 5.9 83 -16.9 1.7
02:20 1025 30.27 855 25.25 -14.1 6.6 83 -16.5 2.3
02:25 1025 30.27 855 25.25 -14 6.7 83 -16.3 2.7
02:30 1025 30.27 854 25.22 -14.2 6.4 84 -16.4 2.6
02:35 1025 30.27 854 25.22 -14.2 6.5 84 -16.3 2.7
02:40 1025 30.27 854 25.22 -14.1 6.7 85 -16.1 3
02:45 1025 30.27 854 25.22 -14 6.9 85 -15.9 3.3
02:50 1025 30.27 854 25.22 -13.8 7.1 85 -15.9 3.4
02:55 1025 30.27 854 25.22 -13.6 7.5 84 -15.7 3.7
03:00 1025 30.27 854 25.22 -13.5 7.6 84 -15.7 3.7
03:05 1025 30.27 854 25.22 -13.6 7.6 84 -15.7 3.8
03:10 1025 30.27 854 25.22 -13.7 7.4 85 -15.7 3.8
03:15 1025 30.27 854 25.22 -13.7 7.4 85 -15.7 3.8
03:20 1025 30.27 854 25.22 -13.6 7.5 86 -15.5 4
03:25 1025 30.27 854 25.22 -13.5 7.6 86 -15.4 4.2
03:30 1024 30.24 854 25.22 -13.3 8.1 87 -15 5
03:35 1024 30.24 854 25.22 -12.8 8.9 84 -15 5
03:40 1024 30.24 854 25.22 -12.7 9.1 86 -14.6 5.8
03:45 1024 30.24 854 25.22 -12.1 10.2 82 -14.6 5.8
03:50 1024 30.24 854 25.22 -11.9 10.6 82 -14.4 6.1
03:55 1024 30.24 854 25.22 -11.5 11.2 81 -14.1 6.6
04:00 1024 30.24 854 25.22 -11.4 11.5 82 -13.9 7
04:05 1024 30.24 853 25.19 -11.4 11.5 81 -14.1 6.6
04:10 1024 30.24 853 25.19 -11.4 11.6 81 -14 6.9
04:15 1024 30.24 853 25.19 -11.4 11.5 82 -13.9 7
04:20 1024 30.24 853 25.19 -11.5 11.3 83 -13.9 7
04:25 1024 30.24 854 25.22 -11.6 11.2 84 -13.8 7.1
04:30 1024 30.24 854 25.22 -11.3 11.6 83 -13.6 7.5
04:35 1024 30.24 854 25.22 -11.5 11.3 83 -13.8 7.2
04:40 1024 30.24 854 25.22 -11.8 10.8 85 -13.9 7
04:45 1024 30.24 854 25.22 -11.7 11 84 -13.8 7.1
04:50 1024 30.24 854 25.22 -11.7 11 84 -13.9 7
04:55 1024 30.24 854 25.22 -11.8 10.7 85 -13.8 7.1
05:00 1024 30.24 853 25.19 -11.8 10.7 85 -13.8 7.1
05:05 1024 30.24 853 25.19 -11.8 10.8 86 -13.7 7.3
05:10 1024 30.24 853 25.19 -11.6 11.1 85 -13.6 7.5
05:15 1024 30.24 853 25.19 -11.4 11.4 84 -13.6 7.5
05:20 1024 30.24 853 25.19 -11.2 11.9 83 -13.4 7.8
05:25 1024 30.24 853 25.19 -11.1 12 84 -13.3 8.1
05:30 1024 30.24 853 25.19 -11.1 12 83 -13.4 7.8
05:35 1024 30.24 853 25.19 -10.9 12.3 85 -13 8.5
05:40 1024 30.24 853 25.19 -10.7 12.7 85 -12.8 9
05:45 1024 30.24 853 25.19 -10.5 13.1 84 -12.7 9.2
05:50 1024 30.24 853 25.19 -10.6 12.9 86 -12.6 9.4
05:55 1024 30.24 853 25.19 -10.7 12.7 87 -12.5 9.5
06:00 1024 30.24 853 25.19 -10.6 12.8 89 -12.2 10.1
06:05 1024 30.24 853 25.19 -10.4 13.2 88 -12 10.4
06:10 1024 30.24 853 25.19 -10.3 13.5 88 -11.9 10.6
06:15 1024 30.24 853 25.19 -10.3 13.4 89 -11.8 10.8
06:20 1024 30.24 853 25.19 -10.4 13.3 89 -11.8 10.7
06:25 1024 30.24 853 25.19 -10.4 13.3 89 -11.8 10.7
06:30 1024 30.24 853 25.19 -10.6 13 90 -11.9 10.6
06:35 1024 30.24 853 25.19 -10.6 13 91 -11.8 10.8
06:40 1024 30.24 853 25.19 -10.5 13.2 92 -11.6 11.1
06:45 1024 30.24 853 25.19 -10.4 13.3 90 -11.7 10.9
06:50 1024 30.24 853 25.19 -10.3 13.5 90 -11.7 11
06:55 1024 30.24 853 25.19 -10.2 13.6 90 -11.5 11.3
07:00 1024 30.24 853 25.19 -10 13.9 90 -11.4 11.6
07:05 1024 30.24 853 25.19 -9.9 14.3 90 -11.2 11.8
07:10 1024 30.24 853 25.19 -9.5 15 88 -11 12.2
07:15 1024 30.24 854 25.22 -9.2 15.5 89 -10.7 12.7
07:20 1024 30.24 853 25.19 -9 15.9 88 -10.6 12.9
07:25 1024 30.24 853 25.19 -9.1 15.6 89 -10.6 12.9
07:30 1024 30.24 853 25.19 -9.4 15 90 -10.7 12.7
07:35 1024 30.24 853 25.19 -9.5 14.8 91 -10.7 12.7
07:40 1024 30.24 853 25.19 -9.3 15.3 91 -10.5 13.2
07:45 1024 30.24 853 25.19 -9 15.9 91 -10.1 13.8
07:50 1024 30.24 853 25.19 -8.8 16.3 89 -10.2 13.6
07:55 1024 30.24 853 25.19 -8.9 16 89 -10.4 13.2
08:00 1024 30.24 853 25.19 -9.2 15.5 89 -10.6 12.9
08:05 1024 30.24 853 25.19 -9.3 15.3 91 -10.5 13.1
08:10 1024 30.24 853 25.19 -9.3 15.4 91 -10.5 13.1
08:15 1024 30.24 853 25.19 -9.2 15.5 91 -10.3 13.4
08:20 1024 30.24 853 25.19 -8.9 16.1 91 -10.1 13.7
08:25 1024 30.24 853 25.19 -8.7 16.3 90 -10.1 13.7
08:30 1024 30.24 853 25.19 -8.9 16 90 -10.2 13.6
08:35 1024 30.24 853 25.19 -8.8 16.1 92 -9.9 14.1
08:40 1024 30.24 853 25.19 -8.4 16.8 91 -9.6 14.7
08:45 1024 30.24 853 25.19 -7.9 17.7 89 -9.4 15
08:50 1024 30.24 853 25.19 -8 17.6 90 -9.4 15.2
08:55 1024 30.24 853 25.19 -7.8 18 91 -9 15.9
09:00 1024 30.24 853 25.19 -7.4 18.8 92 -8.5 16.7
09:05 1024 30.24 853 25.19 -6.8 19.7 89 -8.4 16.9
09:10 1024 30.24 853 25.19 -6.3 20.6 87 -8.2 17.3
09:15 1024 30.24 853 25.19 -6.1 21 86 -8.1 17.4
09:20 1024 30.24 853 25.19 -5.8 21.6 85 -8 17.6
09:25 1024 30.24 853 25.19 -5.5 22.1 83 -8 17.7
09:30 1024 30.24 853 25.19 -5.4 22.3 83 -7.9 17.8
09:35 1024 30.24 853 25.19 -5.4 22.4 82 -8 17.7
09:40 1024 30.24 853 25.19 -5.5 22.2 82 -8 17.6
09:45 1024 30.24 853 25.19 -5.6 21.9 82 -8.2 17.3
09:50 1024 30.24 854 25.22 -5.8 21.6 82 -8.5 16.8
09:55 1024 30.24 854 25.22 -6.3 20.7 82 -8.9 16
10:00 1024 30.24 854 25.22 -6.9 19.6 82 -9.4 15.1
10:05 1025 30.27 854 25.22 -7 19.4 83 -9.4 15.1
10:10 1025 30.27 854 25.22 -6.8 19.7 85 -9 15.8
10:15 1025 30.27 854 25.22 -6.5 20.3 85 -8.7 16.4
10:20 1025 30.27 854 25.22 -6.2 20.8 85 -8.3 17.1
10:25 1025 30.27 854 25.22 -5.8 21.6 83 -8.3 17.1
10:30 1025 30.27 854 25.22 -5.6 22 84 -7.8 18
10:35 1025 30.27 854 25.22 -5.2 22.6 82 -7.9 17.8
10:40 1025 30.27 854 25.22 -4.8 23.4 78 -8.1 17.4
10:45 1025 30.27 854 25.22 -4.8 23.4 81 -7.5 18.4
10:50 1025 30.27 854 25.22 -4.6 23.7 80 -7.5 18.5
10:55 1025 30.27 854 25.22 -4.5 23.8 80 -7.5 18.6
11:00 1025 30.27 854 25.22 -4.1 24.6 77 -7.5 18.5
11:05 1025 30.27 854 25.22 -3.9 24.9 78 -7.2 19.1
11:10 1025 30.27 854 25.22 -4.2 24.4 81 -7 19.5
11:15 1025 30.27 854 25.22 -4 24.8 81 -6.8 19.7
11:20 1025 30.27 854 25.22 -3.9 24.9 81 -6.7 19.9
11:25 1025 30.27 854 25.22 -4 24.8 81 -6.8 19.7
11:30 1025 30.27 854 25.22 -3.9 24.9 81 -6.7 19.9
11:35 1025 30.27 854 25.22 -3.7 25.3 81 -6.6 20.2
11:40 1024 30.24 854 25.22 -3.6 25.6 80 -6.5 20.3
11:45 1024 30.24 854 25.22 -3.3 26.1 79 -6.5 20.4
11:50 1024 30.24 854 25.22 -2.8 26.9 79 -6.1 21.1
11:55 1024 30.24 853 25.19 -2.7 27.2 77 -6.3 20.7
12:00 1024 30.24 853 25.19 -2.3 27.8 75 -6.3 20.7
12:05 1024 30.24 853 25.19 -2.1 28.3 74 -6.2 20.9
12:10 1024 30.24 853 25.19 -1.7 29 72 -6 21.2
12:15 1024 30.24 853 25.19 -1.6 29.1 72 -6 21.2
12:20 1024 30.24 853 25.19 -2.2 28 75 -6 21.1
12:25 1024 30.24 853 25.19 -2.6 27.3 77 -6.1 21
12:30 1024 30.24 853 25.19 -2.5 27.6 77 -6 21.2
12:35 1024 30.24 853 25.19 -2.6 27.3 78 -5.9 21.4
12:40 1024 30.24 853 25.19 -2.5 27.6 77 -6 21.3
12:45 1024 30.24 853 25.19 -2.4 27.7 78 -5.8 21.6
12:50 1024 30.24 853 25.19 -2.7 27.2 78 -5.9 21.4
12:55 1024 30.24 853 25.19 -2.6 27.4 76 -6.2 20.9
13:00 1023 30.21 853 25.19 -2.8 26.9 78 -6.1 21
13:05 1023 30.21 853 25.19 -2.6 27.3 78 -6 21.3
13:10 1023 30.21 853 25.19 -2.2 28.1 77 -5.7 21.7
13:15 1023 30.21 853 25.19 -1.8 28.8 75 -5.6 22
13:20 1023 30.21 853 25.19 -1.5 29.3 72 -5.9 21.3
13:25 1023 30.21 853 25.19 -1.5 29.2 72 -5.9 21.4
13:30 1023 30.21 853 25.19 -1.7 28.9 73 -5.9 21.4
13:35 1023 30.21 853 25.19 -1.5 29.3 72 -6 21.2
13:40 1023 30.21 853 25.19 -1.5 29.3 72 -6 21.2
13:45 1023 30.21 853 25.19 -1.5 29.3 72 -6 21.2
13:50 1023 30.21 853 25.19 -1.7 28.9 73 -6 21.2
13:55 1023 30.21 853 25.19 -2 28.4 75 -5.9 21.4
14:00 1023 30.21 853 25.19 -2 28.5 74 -6 21.2
14:05 1023 30.21 853 25.19 -1.7 28.9 73 -6 21.2
14:10 1023 30.21 853 25.19 -1.6 29.1 72 -5.9 21.3
14:15 1023 30.21 853 25.19 -1.6 29.1 73 -5.9 21.4
14:20 1023 30.21 853 25.19 -1.7 29 73 -5.9 21.3
14:25 1023 30.21 853 25.19 -1.9 28.6 75 -5.8 21.6
14:30 1023 30.21 853 25.19 -2.1 28.3 77 -5.6 21.9
14:35 1023 30.21 853 25.19 -2 28.4 77 -5.6 22
14:40 1023 30.21 853 25.19 -1.9 28.6 78 -5.3 22.4
14:45 1023 30.21 853 25.19 -1.9 28.5 78 -5.3 22.5
14:50 1023 30.21 853 25.19 -1.8 28.9 78 -5.2 22.7
14:55 1023 30.21 852 25.16 -1.4 29.4 77 -5 22.9
15:00 1023 30.21 852 25.16 -1.3 29.6 76 -5 23.1
15:05 1023 30.21 852 25.16 -1.1 30 76 -4.8 23.3
15:10 1023 30.21 852 25.16 -0.8 30.6 74 -4.8 23.3
15:15 1023 30.21 852 25.16 -0.4 31.2 73 -4.8 23.4
15:20 1023 30.21 852 25.16 0.1 32.1 70 -4.7 23.6
15:25 1023 30.21 853 25.19 0.3 32.6 70 -4.5 23.9
15:30 1023 30.21 853 25.19 -0.3 31.5 72 -4.7 23.6
15:35 1023 30.21 853 25.19 -0.9 30.4 74 -5 23
15:40 1023 30.21 853 25.19 -1.2 29.9 75 -5.1 22.8
15:45 1024 30.24 853 25.19 -1.2 29.8 75 -5.1 22.9
15:50 1024 30.24 853 25.19 -1 30.2 74 -5 23
15:55 1024 30.24 853 25.19 -0.5 31.1 72 -4.9 23.2
16:00 1024 30.24 853 25.19 -0.3 31.5 72 -4.7 23.5
16:05 1024 30.24 853 25.19 -0.5 31.1 75 -4.4 24.1
16:10 1024 30.24 853 25.19 -1 30.3 77 -4.4 24
16:15 1024 30.24 853 25.19 -1.2 29.9 79 -4.4 24
16:20 1024 30.24 853 25.19 -1 30.2 79 -4.3 24.3
16:25 1024 30.24 853 25.19 -0.4 31.3 75 -4.2 24.4
16:30 1024 30.24 853 25.19 0 32.1 73 -4.2 24.5
16:35 1024 30.24 853 25.19 0.6 33 71 -4.1 24.7
16:40 1023 30.21 853 25.19 0.9 33.6 70 -4 24.8
16:45 1024 30.24 853 25.19 0.9 33.6 71 -3.9 25.1
16:50 1024 30.24 853 25.19 0.3 32.5 75 -3.7 25.3
16:55 1024 30.24 853 25.19 0 32 75 -3.9 25
17:00 1024 30.24 853 25.19 0.3 32.5 72 -4.1 24.6
17:05 1024 30.24 853 25.19 0.8 33.5 70 -4.1 24.7
17:10 1024 30.24 853 25.19 1 33.8 69 -3.9 24.9
17:15 1024 30.24 853 25.19 0.3 32.5 75 -3.7 25.4
17:20 1024 30.24 853 25.19 -1.2 29.8 80 -4.3 24.2
17:25 1024 30.24 853 25.19 -2.3 27.8 83 -4.9 23.2
17:30 1024 30.24 853 25.19 -1.9 28.6 81 -4.7 23.5
17:35 1024 30.24 853 25.19 -1.3 29.7 78 -4.7 23.5
17:40 1024 30.24 853 25.19 -1.1 30 77 -4.6 23.8
17:45 1024 30.24 853 25.19 -1.5 29.4 79 -4.7 23.6
17:50 1024 30.24 853 25.19 -1.8 28.7 81 -4.6 23.6
17:55 1024 30.24 853 25.19 -1.8 28.7 81 -4.6 23.7
18:00 1024 30.24 853 25.19 -1.8 28.8 81 -4.6 23.7
18:05 1024 30.24 853 25.19 -1.7 28.9 80 -4.8 23.4
18:10 1024 30.24 853 25.19 -1.7 29 80 -4.7 23.6
18:15 1024 30.24 853 25.19 -1.7 29 80 -4.6 23.7
18:20 1024 30.24 853 25.19 -1.7 29 81 -4.6 23.8
18:25 1024 30.24 853 25.19 -1.7 28.9 82 -4.5 24
18:30 1024 30.24 853 25.19 -1.9 28.7 82 -4.5 23.8
18:35 1024 30.24 853 25.19 -1.7 28.9 82 -4.4 24
18:40 1024 30.24 853 25.19 -1.7 29 82 -4.4 24
18:45 1024 30.24 853 25.19 -1 30.3 79 -4.2 24.4
18:50 1024 30.24 853 25.19 -0.4 31.3 75 -4.3 24.3
18:55 1024 30.24 853 25.19 -0.1 31.9 75 -4 24.7
19:00 1024 30.24 853 25.19 0.1 32.2 74 -3.9 24.9
19:05 1024 30.24 853 25.19 0.1 32.3 74 -4 24.8
19:10 1024 30.24 853 25.19 0 32.1 74 -4.1 24.6
19:15 1024 30.24 853 25.19 0.2 32.4 72 -4.2 24.5
19:20 1024 30.24 854 25.22 0.4 32.7 72 -4.2 24.5
19:25 1024 30.24 853 25.19 0.5 32.9 72 -4 24.8
19:30 1024 30.24 854 25.22 0.4 32.7 72 -4 24.8
19:35 1024 30.24 854 25.22 0.1 32.2 74 -4 24.7
19:40 1024 30.24 854 25.22 0.2 32.4 72 -4.2 24.5
19:45 1024 30.24 854 25.22 0.4 32.8 73 -3.9 25
19:50 1024 30.24 854 25.22 0.4 32.6 73 -4 24.8
19:55 1024 30.24 854 25.22 0.4 32.7 73 -4 24.9
20:00 1024 30.24 854 25.22 0.4 32.7 72 -4.1 24.6
20:05 1024 30.24 854 25.22 0.6 33.1 71 -4 24.8
20:10 1024 30.24 854 25.22 0.5 33 72 -4 24.8
20:15 1024 30.24 854 25.22 0.5 32.9 72 -4.1 24.7
20:20 1024 30.24 854 25.22 0.5 32.9 72 -4 24.7
20:25 1024 30.24 854 25.22 0.3 32.6 72 -4.1 24.6
20:30 1024 30.24 854 25.22 0.1 32.2 73 -4.1 24.7
20:35 1024 30.24 854 25.22 0.1 32.2 73 -4.3 24.3
20:40 1024 30.24 854 25.22 0.1 32.3 73 -4.1 24.6
20:45 1024 30.24 854 25.22 0 32 73 -4.2 24.5
20:50 1024 30.24 853 25.19 -0.2 31.7 74 -4.2 24.4
20:55 1024 30.24 853 25.19 -0.3 31.4 74 -4.3 24.2
21:00 1024 30.24 854 25.22 -0.3 31.5 75 -4.2 24.5
21:05 1024 30.24 854 25.22 -0.3 31.4 74 -4.4 24.1
21:10 1024 30.24 853 25.19 -0.3 31.4 75 -4.3 24.3
21:15 1024 30.24 854 25.22 -0.4 31.3 75 -4.3 24.2
21:20 1024 30.24 854 25.22 -0.6 31 76 -4.3 24.3
21:25 1024 30.24 854 25.22 -0.6 30.9 76 -4.4 24.1
21:30 1024 30.24 853 25.19 -0.9 30.4 77 -4.4 24
21:35 1024 30.24 853 25.19 -1.2 29.8 78 -4.5 23.9
21:40 1024 30.24 853 25.19 -1.3 29.7 78 -4.6 23.8
21:45 1024 30.24 853 25.19 -1.4 29.5 78 -4.7 23.6
21:50 1024 30.24 853 25.19 -1.6 29.2 81 -4.4 24
21:55 1024 30.24 854 25.22 -1.8 28.8 82 -4.5 24
22:00 1024 30.24 854 25.22 -1.4 29.4 79 -4.6 23.8
22:05 1024 30.24 854 25.22 -0.9 30.4 78 -4.3 24.3
22:10 1024 30.24 854 25.22 -0.7 30.7 76 -4.3 24.2
22:15 1025 30.27 854 25.22 -0.6 30.9 76 -4.4 24.1
22:20 1025 30.27 854 25.22 -0.6 31 76 -4.3 24.2
22:25 1025 30.27 854 25.22 -0.6 30.9 76 -4.3 24.2
22:30 1025 30.27 854 25.22 -0.6 30.8 75 -4.5 24
22:35 1025 30.27 854 25.22 -0.7 30.8 75 -4.5 23.9
22:40 1025 30.27 854 25.22 -0.9 30.4 77 -4.4 24
22:45 1025 30.27 854 25.22 -1.3 29.7 79 -4.5 23.9
22:50 1025 30.27 854 25.22 -1.2 29.8 78 -4.6 23.7
22:55 1025 30.27 854 25.22 -0.9 30.3 77 -4.5 23.9
23:00 1025 30.27 854 25.22 -0.6 30.9 76 -4.4 24.1
23:05 1025 30.27 854 25.22 -0.5 31.1 74 -4.5 23.8
23:10 1025 30.27 854 25.22 -0.4 31.2 75 -4.3 24.2
23:15 1025 30.27 854 25.22 -0.3 31.4 74 -4.4 24
23:20 1025 30.27 854 25.22 -0.3 31.4 74 -4.4 24.1
23:25 1025 30.27 854 25.22 -0.1 31.9 74 -4.2 24.5
23:30 1025 30.27 854 25.22 -0.1 31.9 73 -4.3 24.3
23:35 1025 30.27 854 25.22 -0.1 31.8 74 -4.2 24.5
23:40 1025 30.27 854 25.22 -0.3 31.5 74 -4.3 24.3
23:45 1025 30.27 854 25.22 -0.8 30.6 79 -4 24.7
23:50 1025 30.27 854 25.22 -1 30.3 80 -4 24.8
23:55 1025 30.27 854 25.22 -1.1 30.1 80 -4 24.7
24:00 1025 30.27 854 25.22 -1 30.2 79 -4.1 24.6